sensor_id;sensor_type;location;lat;lon;timestamp;temperature;humidity
7814;DHT22;3952;48.364;16.022;2023-06-19T00:00:53;18.10;99.90
7814;DHT22;3952;48.364;16.022;2023-06-19T00:03:20;18.00;99.90
7814;DHT22;3952;48.364;16.022;2023-06-19T00:05:47;18.00;99.90
7814;DHT22;3952;48.364;16.022;2023-06-19T00:08:14;17.90;99.90
7814;DHT22;3952;48.364;16.022;2023-06-19T00:10:43;17.90;99.90
7814;DHT22;3952;48.364;16.022;2023-06-19T00:13:10;17.80;99.90
7814;DHT22;3952;48.364;16.022;2023-06-19T00:15:37;17.80;99.90
7814;DHT22;3952;48.364;16.022;2023-06-19T00:18:05;17.70;99.90
7814;DHT22;3952;48.364;16.022;2023-06-19T00:20:32;17.60;99.90
7814;DHT22;3952;48.364;16.022;2023-06-19T00:23:01;17.50;99.90
7814;DHT22;3952;48.364;16.022;2023-06-19T00:25:29;17.50;99.90
7814;DHT22;3952;48.364;16.022;2023-06-19T00:27:57;17.40;99.90
7814;DHT22;3952;48.364;16.022;2023-06-19T00:30:24;17.40;99.90
7814;DHT22;3952;48.364;16.022;2023-06-19T00:32:52;17.30;99.90
7814;DHT22;3952;48.364;16.022;2023-06-19T00:35:19;17.20;99.90
7814;DHT22;3952;48.364;16.022;2023-06-19T00:37:47;17.20;99.90
7814;DHT22;3952;48.364;16.022;2023-06-19T00:40:32;17.20;99.90
7814;DHT22;3952;48.364;16.022;2023-06-19T00:43:01;17.10;99.90
7814;DHT22;3952;48.364;16.022;2023-06-19T00:45:29;17.10;99.90
7814;DHT22;3952;48.364;16.022;2023-06-19T00:47:58;17.00;99.90
7814;DHT22;3952;48.364;16.022;2023-06-19T00:50:27;17.00;99.90
7814;DHT22;3952;48.364;16.022;2023-06-19T00:52:54;16.90;99.90
7814;DHT22;3952;48.364;16.022;2023-06-19T00:55:22;16.90;99.90
7814;DHT22;3952;48.364;16.022;2023-06-19T00:57:52;16.80;99.90
7814;DHT22;3952;48.364;16.022;2023-06-19T01:00:21;16.80;99.90
7814;DHT22;3952;48.364;16.022;2023-06-19T01:02:48;16.80;99.90
7814;DHT22;3952;48.364;16.022;2023-06-19T01:05:16;16.70;99.90
7814;DHT22;3952;48.364;16.022;2023-06-19T01:07:49;16.70;99.90
7814;DHT22;3952;48.364;16.022;2023-06-19T01:10:23;16.60;99.90
7814;DHT22;3952;48.364;16.022;2023-06-19T01:13:00;16.60;99.90
7814;DHT22;3952;48.364;16.022;2023-06-19T01:15:30;16.50;99.90
7814;DHT22;3952;48.364;16.022;2023-06-19T01:18:00;16.50;99.90
7814;DHT22;3952;48.364;16.022;2023-06-19T01:20:27;16.40;99.90
7814;DHT22;3952;48.364;16.022;2023-06-19T01:22:56;16.40;99.90
7814;DHT22;3952;48.364;16.022;2023-06-19T01:25:23;16.30;99.90
7814;DHT22;3952;48.364;16.022;2023-06-19T01:27:51;16.30;99.90
7814;DHT22;3952;48.364;16.022;2023-06-19T01:30:19;16.20;99.90
7814;DHT22;3952;48.364;16.022;2023-06-19T01:32:52;16.20;99.90
7814;DHT22;3952;48.364;16.022;2023-06-19T01:35:23;16.10;99.90
7814;DHT22;3952;48.364;16.022;2023-06-19T01:37:52;16.10;99.90
7814;DHT22;3952;48.364;16.022;2023-06-19T01:40:22;16.10;99.90
7814;DHT22;3952;48.364;16.022;2023-06-19T01:42:52;16.00;99.90
7814;DHT22;3952;48.364;16.022;2023-06-19T01:45:20;16.00;99.90
7814;DHT22;3952;48.364;16.022;2023-06-19T01:47:47;15.90;99.90
7814;DHT22;3952;48.364;16.022;2023-06-19T01:50:14;15.90;99.90
7814;DHT22;3952;48.364;16.022;2023-06-19T01:52:42;15.90;99.90
7814;DHT22;3952;48.364;16.022;2023-06-19T01:55:09;15.90;99.90
7814;DHT22;3952;48.364;16.022;2023-06-19T01:57:38;15.90;99.90
7814;DHT22;3952;48.364;16.022;2023-06-19T02:00:07;15.90;99.90
7814;DHT22;3952;48.364;16.022;2023-06-19T02:02:36;15.90;99.90
7814;DHT22;3952;48.364;16.022;2023-06-19T02:05:03;15.90;99.90
7814;DHT22;3952;48.364;16.022;2023-06-19T02:07:30;15.90;99.90
7814;DHT22;3952;48.364;16.022;2023-06-19T02:09:58;15.80;99.90
7814;DHT22;3952;48.364;16.022;2023-06-19T02:12:25;15.80;99.90
7814;DHT22;3952;48.364;16.022;2023-06-19T02:14:53;15.70;99.90
7814;DHT22;3952;48.364;16.022;2023-06-19T02:17:21;15.70;99.90
7814;DHT22;3952;48.364;16.022;2023-06-19T02:19:48;15.70;99.90
7814;DHT22;3952;48.364;16.022;2023-06-19T02:22:16;15.60;99.90
7814;DHT22;3952;48.364;16.022;2023-06-19T02:24:43;15.60;99.90
7814;DHT22;3952;48.364;16.022;2023-06-19T02:27:11;15.50;99.90
7814;DHT22;3952;48.364;16.022;2023-06-19T02:29:38;15.50;99.90
7814;DHT22;3952;48.364;16.022;2023-06-19T02:32:07;15.40;99.90
7814;DHT22;3952;48.364;16.022;2023-06-19T02:34:35;15.40;99.90
7814;DHT22;3952;48.364;16.022;2023-06-19T02:37:02;15.40;99.90
7814;DHT22;3952;48.364;16.022;2023-06-19T02:39:29;15.40;99.90
7814;DHT22;3952;48.364;16.022;2023-06-19T02:41:56;15.40;99.90
7814;DHT22;3952;48.364;16.022;2023-06-19T02:44:24;15.30;99.90
7814;DHT22;3952;48.364;16.022;2023-06-19T02:46:51;15.30;99.90
7814;DHT22;3952;48.364;16.022;2023-06-19T02:49:19;15.30;99.90
7814;DHT22;3952;48.364;16.022;2023-06-19T02:51:46;15.30;99.90
7814;DHT22;3952;48.364;16.022;2023-06-19T02:54:14;15.30;99.90
7814;DHT22;3952;48.364;16.022;2023-06-19T02:56:41;15.30;99.90
7814;DHT22;3952;48.364;16.022;2023-06-19T02:59:08;15.20;99.90
7814;DHT22;3952;48.364;16.022;2023-06-19T03:01:35;15.20;99.90
7814;DHT22;3952;48.364;16.022;2023-06-19T03:04:03;15.10;99.90
7814;DHT22;3952;48.364;16.022;2023-06-19T03:06:31;15.10;99.90
7814;DHT22;3952;48.364;16.022;2023-06-19T03:09:05;15.10;99.90
7814;DHT22;3952;48.364;16.022;2023-06-19T03:11:38;15.00;99.90
7814;DHT22;3952;48.364;16.022;2023-06-19T03:14:05;15.00;99.90
7814;DHT22;3952;48.364;16.022;2023-06-19T03:16:33;15.00;99.90
7814;DHT22;3952;48.364;16.022;2023-06-19T03:19:01;15.00;99.90
7814;DHT22;3952;48.364;16.022;2023-06-19T03:21:28;15.00;99.90
7814;DHT22;3952;48.364;16.022;2023-06-19T03:23:57;15.00;99.90
7814;DHT22;3952;48.364;16.022;2023-06-19T03:26:24;15.00;99.90
7814;DHT22;3952;48.364;16.022;2023-06-19T03:28:51;14.90;99.90
7814;DHT22;3952;48.364;16.022;2023-06-19T03:31:19;14.90;99.90
7814;DHT22;3952;48.364;16.022;2023-06-19T03:33:47;15.00;99.90
7814;DHT22;3952;48.364;16.022;2023-06-19T03:36:14;15.00;99.90
7814;DHT22;3952;48.364;16.022;2023-06-19T03:38:41;15.00;99.90
7814;DHT22;3952;48.364;16.022;2023-06-19T03:41:10;15.00;99.90
7814;DHT22;3952;48.364;16.022;2023-06-19T03:43:38;15.00;99.90
7814;DHT22;3952;48.364;16.022;2023-06-19T03:46:05;15.00;99.90
7814;DHT22;3952;48.364;16.022;2023-06-19T03:48:32;15.00;99.90
7814;DHT22;3952;48.364;16.022;2023-06-19T03:50:59;15.00;99.90
7814;DHT22;3952;48.364;16.022;2023-06-19T03:53:26;15.10;99.90
7814;DHT22;3952;48.364;16.022;2023-06-19T03:55:54;15.10;99.90
7814;DHT22;3952;48.364;16.022;2023-06-19T03:58:23;15.10;99.90
7814;DHT22;3952;48.364;16.022;2023-06-19T04:00:51;15.20;99.90
7814;DHT22;3952;48.364;16.022;2023-06-19T04:03:18;15.20;99.90
7814;DHT22;3952;48.364;16.022;2023-06-19T04:05:45;15.20;99.90
7814;DHT22;3952;48.364;16.022;2023-06-19T04:08:13;15.30;99.90
7814;DHT22;3952;48.364;16.022;2023-06-19T04:10:40;15.30;99.90
7814;DHT22;3952;48.364;16.022;2023-06-19T04:13:07;15.30;99.90
7814;DHT22;3952;48.364;16.022;2023-06-19T04:15:36;15.30;99.90
7814;DHT22;3952;48.364;16.022;2023-06-19T04:18:03;15.40;99.90
7814;DHT22;3952;48.364;16.022;2023-06-19T04:20:30;15.40;99.90
7814;DHT22;3952;48.364;16.022;2023-06-19T04:22:57;15.60;99.90
7814;DHT22;3952;48.364;16.022;2023-06-19T04:25:25;15.70;99.90
7814;DHT22;3952;48.364;16.022;2023-06-19T04:27:52;15.80;99.90
7814;DHT22;3952;48.364;16.022;2023-06-19T04:30:19;15.90;99.90
7814;DHT22;3952;48.364;16.022;2023-06-19T04:32:49;15.90;99.90
7814;DHT22;3952;48.364;16.022;2023-06-19T04:35:18;16.00;99.90
7814;DHT22;3952;48.364;16.022;2023-06-19T04:37:46;16.00;99.90
7814;DHT22;3952;48.364;16.022;2023-06-19T04:40:14;16.10;99.90
7814;DHT22;3952;48.364;16.022;2023-06-19T04:42:41;16.10;99.90
7814;DHT22;3952;48.364;16.022;2023-06-19T04:45:09;16.20;99.90
7814;DHT22;3952;48.364;16.022;2023-06-19T04:47:37;16.20;99.90
7814;DHT22;3952;48.364;16.022;2023-06-19T04:50:08;16.30;99.90
7814;DHT22;3952;48.364;16.022;2023-06-19T04:52:35;16.30;99.90
7814;DHT22;3952;48.364;16.022;2023-06-19T04:55:05;16.40;99.90
7814;DHT22;3952;48.364;16.022;2023-06-19T04:57:35;16.40;99.90
7814;DHT22;3952;48.364;16.022;2023-06-19T05:00:04;16.50;99.90
7814;DHT22;3952;48.364;16.022;2023-06-19T05:02:33;16.60;99.90
7814;DHT22;3952;48.364;16.022;2023-06-19T05:05:00;16.70;99.90
7814;DHT22;3952;48.364;16.022;2023-06-19T05:07:30;16.70;99.90
7814;DHT22;3952;48.364;16.022;2023-06-19T05:09:57;16.80;99.90
7814;DHT22;3952;48.364;16.022;2023-06-19T05:12:25;16.80;99.90
7814;DHT22;3952;48.364;16.022;2023-06-19T05:14:52;16.90;99.90
7814;DHT22;3952;48.364;16.022;2023-06-19T05:17:19;17.00;99.90
7814;DHT22;3952;48.364;16.022;2023-06-19T05:19:46;17.00;99.90
7814;DHT22;3952;48.364;16.022;2023-06-19T05:22:13;17.10;99.90
7814;DHT22;3952;48.364;16.022;2023-06-19T05:24:42;17.20;99.90
7814;DHT22;3952;48.364;16.022;2023-06-19T05:27:09;17.20;99.90
7814;DHT22;3952;48.364;16.022;2023-06-19T05:29:36;17.30;99.90
7814;DHT22;3952;48.364;16.022;2023-06-19T05:32:04;17.40;99.90
7814;DHT22;3952;48.364;16.022;2023-06-19T05:34:32;17.50;99.90
7814;DHT22;3952;48.364;16.022;2023-06-19T05:36:59;17.50;99.90
7814;DHT22;3952;48.364;16.022;2023-06-19T05:39:29;17.60;99.90
7814;DHT22;3952;48.364;16.022;2023-06-19T05:41:57;17.70;99.90
7814;DHT22;3952;48.364;16.022;2023-06-19T05:44:25;17.80;99.90
7814;DHT22;3952;48.364;16.022;2023-06-19T05:46:52;17.90;99.90
7814;DHT22;3952;48.364;16.022;2023-06-19T05:49:19;18.00;99.90
7814;DHT22;3952;48.364;16.022;2023-06-19T05:51:46;18.10;99.90
7814;DHT22;3952;48.364;16.022;2023-06-19T05:54:13;18.20;99.90
7814;DHT22;3952;48.364;16.022;2023-06-19T05:56:41;18.30;99.90
7814;DHT22;3952;48.364;16.022;2023-06-19T05:59:09;18.40;99.90
7814;DHT22;3952;48.364;16.022;2023-06-19T06:01:36;18.50;99.90
7814;DHT22;3952;48.364;16.022;2023-06-19T06:04:04;18.60;99.90
7814;DHT22;3952;48.364;16.022;2023-06-19T06:06:31;18.70;99.90
7814;DHT22;3952;48.364;16.022;2023-06-19T06:08:58;18.80;99.90
7814;DHT22;3952;48.364;16.022;2023-06-19T06:11:25;18.90;99.90
7814;DHT22;3952;48.364;16.022;2023-06-19T06:13:53;19.10;99.90
7814;DHT22;3952;48.364;16.022;2023-06-19T06:16:21;19.20;99.90
7814;DHT22;3952;48.364;16.022;2023-06-19T06:18:48;19.30;99.90
7814;DHT22;3952;48.364;16.022;2023-06-19T06:21:16;19.40;99.90
7814;DHT22;3952;48.364;16.022;2023-06-19T06:23:43;19.50;99.90
7814;DHT22;3952;48.364;16.022;2023-06-19T06:26:10;19.60;99.90
7814;DHT22;3952;48.364;16.022;2023-06-19T06:28:37;19.70;99.90
7814;DHT22;3952;48.364;16.022;2023-06-19T06:31:05;19.80;99.90
7814;DHT22;3952;48.364;16.022;2023-06-19T06:33:34;19.90;99.90
7814;DHT22;3952;48.364;16.022;2023-06-19T06:36:01;20.10;99.90
7814;DHT22;3952;48.364;16.022;2023-06-19T06:38:29;20.20;99.90
7814;DHT22;3952;48.364;16.022;2023-06-19T06:40:56;20.30;99.90
7814;DHT22;3952;48.364;16.022;2023-06-19T06:43:23;20.40;99.90
7814;DHT22;3952;48.364;16.022;2023-06-19T06:45:50;20.50;99.90
7814;DHT22;3952;48.364;16.022;2023-06-19T06:48:17;20.70;99.90
7814;DHT22;3952;48.364;16.022;2023-06-19T06:50:46;20.80;99.90
7814;DHT22;3952;48.364;16.022;2023-06-19T06:53:13;20.90;99.90
7814;DHT22;3952;48.364;16.022;2023-06-19T06:55:40;21.00;99.90
7814;DHT22;3952;48.364;16.022;2023-06-19T06:58:07;21.10;99.90
7814;DHT22;3952;48.364;16.022;2023-06-19T07:00:35;21.10;99.90
7814;DHT22;3952;48.364;16.022;2023-06-19T07:03:02;21.30;99.90
7814;DHT22;3952;48.364;16.022;2023-06-19T07:05:29;21.40;99.90
7814;DHT22;3952;48.364;16.022;2023-06-19T07:07:58;21.50;99.90
7814;DHT22;3952;48.364;16.022;2023-06-19T07:10:25;21.60;99.90
7814;DHT22;3952;48.364;16.022;2023-06-19T07:12:52;21.70;99.90
7814;DHT22;3952;48.364;16.022;2023-06-19T07:15:19;21.90;99.90
7814;DHT22;3952;48.364;16.022;2023-06-19T07:17:47;22.00;99.90
7814;DHT22;3952;48.364;16.022;2023-06-19T07:20:14;22.10;99.90
7814;DHT22;3952;48.364;16.022;2023-06-19T07:22:42;22.20;99.90
7814;DHT22;3952;48.364;16.022;2023-06-19T07:25:12;22.30;99.90
7814;DHT22;3952;48.364;16.022;2023-06-19T07:27:40;22.30;99.90
7814;DHT22;3952;48.364;16.022;2023-06-19T07:30:08;22.40;99.90
7814;DHT22;3952;48.364;16.022;2023-06-19T07:32:36;22.60;99.90
7814;DHT22;3952;48.364;16.022;2023-06-19T07:35:04;22.70;99.90
7814;DHT22;3952;48.364;16.022;2023-06-19T07:37:32;22.90;99.90
7814;DHT22;3952;48.364;16.022;2023-06-19T07:39:59;23.00;99.90
7814;DHT22;3952;48.364;16.022;2023-06-19T07:42:27;23.10;99.90
7814;DHT22;3952;48.364;16.022;2023-06-19T07:44:55;23.20;99.90
7814;DHT22;3952;48.364;16.022;2023-06-19T07:47:22;23.40;99.90
7814;DHT22;3952;48.364;16.022;2023-06-19T07:49:49;23.50;99.90
7814;DHT22;3952;48.364;16.022;2023-06-19T07:52:16;23.60;99.90
7814;DHT22;3952;48.364;16.022;2023-06-19T07:54:51;23.70;99.90
7814;DHT22;3952;48.364;16.022;2023-06-19T07:57:19;23.70;99.90
7814;DHT22;3952;48.364;16.022;2023-06-19T07:59:48;23.80;99.90
7814;DHT22;3952;48.364;16.022;2023-06-19T08:02:16;23.90;99.90
7814;DHT22;3952;48.364;16.022;2023-06-19T08:04:44;24.00;99.90
7814;DHT22;3952;48.364;16.022;2023-06-19T08:07:11;24.10;99.90
7814;DHT22;3952;48.364;16.022;2023-06-19T08:09:38;24.20;99.90
7814;DHT22;3952;48.364;16.022;2023-06-19T08:12:06;24.30;99.90
7814;DHT22;3952;48.364;16.022;2023-06-19T08:14:33;24.50;99.90
7814;DHT22;3952;48.364;16.022;2023-06-19T08:17:02;24.70;99.90
7814;DHT22;3952;48.364;16.022;2023-06-19T08:19:29;24.80;99.90
7814;DHT22;3952;48.364;16.022;2023-06-19T08:21:57;24.90;99.90
7814;DHT22;3952;48.364;16.022;2023-06-19T08:24:24;25.00;99.90
7814;DHT22;3952;48.364;16.022;2023-06-19T08:26:51;25.00;99.90
7814;DHT22;3952;48.364;16.022;2023-06-19T08:29:19;25.10;99.90
7814;DHT22;3952;48.364;16.022;2023-06-19T08:31:46;25.20;99.90
7814;DHT22;3952;48.364;16.022;2023-06-19T08:34:14;25.30;99.90
7814;DHT22;3952;48.364;16.022;2023-06-19T08:36:42;25.40;99.90
7814;DHT22;3952;48.364;16.022;2023-06-19T08:39:09;25.50;99.90
7814;DHT22;3952;48.364;16.022;2023-06-19T08:41:37;25.60;99.90
7814;DHT22;3952;48.364;16.022;2023-06-19T08:44:04;25.70;99.90
7814;DHT22;3952;48.364;16.022;2023-06-19T08:46:31;25.80;99.90
7814;DHT22;3952;48.364;16.022;2023-06-19T08:49:00;25.90;99.90
7814;DHT22;3952;48.364;16.022;2023-06-19T08:51:28;26.00;99.90
7814;DHT22;3952;48.364;16.022;2023-06-19T08:53:59;26.10;99.90
7814;DHT22;3952;48.364;16.022;2023-06-19T08:56:27;26.20;99.90
7814;DHT22;3952;48.364;16.022;2023-06-19T08:58:54;26.30;99.90
7814;DHT22;3952;48.364;16.022;2023-06-19T09:01:21;26.40;99.90
7814;DHT22;3952;48.364;16.022;2023-06-19T09:03:53;26.50;99.90
7814;DHT22;3952;48.364;16.022;2023-06-19T09:06:21;26.60;99.90
7814;DHT22;3952;48.364;16.022;2023-06-19T09:08:59;26.70;99.90
7814;DHT22;3952;48.364;16.022;2023-06-19T09:11:26;26.80;99.90
7814;DHT22;3952;48.364;16.022;2023-06-19T09:13:56;26.90;99.90
7814;DHT22;3952;48.364;16.022;2023-06-19T09:16:36;27.00;99.90
7814;DHT22;3952;48.364;16.022;2023-06-19T09:19:04;27.10;99.90
7814;DHT22;3952;48.364;16.022;2023-06-19T09:21:32;27.10;99.90
7814;DHT22;3952;48.364;16.022;2023-06-19T09:24:05;27.10;99.90
7814;DHT22;3952;48.364;16.022;2023-06-19T09:26:32;27.20;99.90
7814;DHT22;3952;48.364;16.022;2023-06-19T09:29:10;27.30;99.90
7814;DHT22;3952;48.364;16.022;2023-06-19T09:31:37;27.30;99.90
7814;DHT22;3952;48.364;16.022;2023-06-19T09:34:07;27.40;99.90
7814;DHT22;3952;48.364;16.022;2023-06-19T09:36:35;27.40;99.90
7814;DHT22;3952;48.364;16.022;2023-06-19T09:39:04;27.40;99.90
7814;DHT22;3952;48.364;16.022;2023-06-19T09:41:31;27.50;99.90
7814;DHT22;3952;48.364;16.022;2023-06-19T09:43:59;27.60;99.90
7814;DHT22;3952;48.364;16.022;2023-06-19T09:46:30;27.80;99.90
7814;DHT22;3952;48.364;16.022;2023-06-19T09:49:01;27.80;99.90
7814;DHT22;3952;48.364;16.022;2023-06-19T09:51:31;27.80;99.90
7814;DHT22;3952;48.364;16.022;2023-06-19T09:53:59;27.90;99.90
7814;DHT22;3952;48.364;16.022;2023-06-19T09:56:30;27.90;99.90
7814;DHT22;3952;48.364;16.022;2023-06-19T09:58:59;27.90;99.90
7814;DHT22;3952;48.364;16.022;2023-06-19T10:01:27;28.00;99.90
7814;DHT22;3952;48.364;16.022;2023-06-19T10:04:03;28.10;99.90
7814;DHT22;3952;48.364;16.022;2023-06-19T10:06:30;28.30;99.90
7814;DHT22;3952;48.364;16.022;2023-06-19T10:09:06;28.30;99.90
7814;DHT22;3952;48.364;16.022;2023-06-19T10:11:51;28.20;99.90
7814;DHT22;3952;48.364;16.022;2023-06-19T10:14:18;28.30;99.90
7814;DHT22;3952;48.364;16.022;2023-06-19T10:16:46;28.40;99.90
7814;DHT22;3952;48.364;16.022;2023-06-19T10:19:14;28.40;99.90
7814;DHT22;3952;48.364;16.022;2023-06-19T10:21:47;28.40;99.90
7814;DHT22;3952;48.364;16.022;2023-06-19T10:24:15;28.50;99.90
7814;DHT22;3952;48.364;16.022;2023-06-19T10:26:58;28.60;99.90
7814;DHT22;3952;48.364;16.022;2023-06-19T10:29:25;28.70;99.90
7814;DHT22;3952;48.364;16.022;2023-06-19T10:31:53;28.70;99.90
7814;DHT22;3952;48.364;16.022;2023-06-19T10:34:22;28.60;99.90
7814;DHT22;3952;48.364;16.022;2023-06-19T10:36:59;28.60;99.90
7814;DHT22;3952;48.364;16.022;2023-06-19T10:39:27;28.70;99.90
7814;DHT22;3952;48.364;16.022;2023-06-19T10:41:54;28.80;99.90
7814;DHT22;3952;48.364;16.022;2023-06-19T10:44:23;28.70;99.90
7814;DHT22;3952;48.364;16.022;2023-06-19T10:46:52;28.70;99.90
7814;DHT22;3952;48.364;16.022;2023-06-19T10:49:21;28.80;99.90
7814;DHT22;3952;48.364;16.022;2023-06-19T10:51:48;28.80;99.90
7814;DHT22;3952;48.364;16.022;2023-06-19T10:54:16;28.80;99.90
7814;DHT22;3952;48.364;16.022;2023-06-19T10:56:43;28.80;99.90
7814;DHT22;3952;48.364;16.022;2023-06-19T10:59:13;28.80;99.90
7814;DHT22;3952;48.364;16.022;2023-06-19T11:01:44;28.80;99.90
7814;DHT22;3952;48.364;16.022;2023-06-19T11:04:12;28.80;99.90
7814;DHT22;3952;48.364;16.022;2023-06-19T11:06:41;28.80;99.90
7814;DHT22;3952;48.364;16.022;2023-06-19T11:09:10;28.90;99.90
7814;DHT22;3952;48.364;16.022;2023-06-19T11:11:40;28.90;99.90
7814;DHT22;3952;48.364;16.022;2023-06-19T11:14:08;28.90;99.90
7814;DHT22;3952;48.364;16.022;2023-06-19T11:16:38;28.90;99.90
7814;DHT22;3952;48.364;16.022;2023-06-19T11:19:08;29.00;99.90
7814;DHT22;3952;48.364;16.022;2023-06-19T11:21:36;29.00;99.90
7814;DHT22;3952;48.364;16.022;2023-06-19T11:24:05;29.10;99.90
7814;DHT22;3952;48.364;16.022;2023-06-19T11:26:35;29.20;99.90
7814;DHT22;3952;48.364;16.022;2023-06-19T11:29:14;29.30;99.90
7814;DHT22;3952;48.364;16.022;2023-06-19T11:31:41;29.40;99.90
7814;DHT22;3952;48.364;16.022;2023-06-19T11:34:12;29.50;99.90
7814;DHT22;3952;48.364;16.022;2023-06-19T11:36:40;29.50;99.90
7814;DHT22;3952;48.364;16.022;2023-06-19T11:39:11;29.50;99.90
7814;DHT22;3952;48.364;16.022;2023-06-19T11:41:39;29.50;99.90
7814;DHT22;3952;48.364;16.022;2023-06-19T11:44:08;29.60;99.90
7814;DHT22;3952;48.364;16.022;2023-06-19T11:46:36;29.60;99.90
7814;DHT22;3952;48.364;16.022;2023-06-19T11:49:12;29.40;99.90
7814;DHT22;3952;48.364;16.022;2023-06-19T11:51:40;29.30;99.90
7814;DHT22;3952;48.364;16.022;2023-06-19T11:54:10;29.30;99.90
7814;DHT22;3952;48.364;16.022;2023-06-19T11:56:38;29.40;99.90
7814;DHT22;3952;48.364;16.022;2023-06-19T11:59:06;29.50;99.90
7814;DHT22;3952;48.364;16.022;2023-06-19T12:01:34;29.60;99.90
7814;DHT22;3952;48.364;16.022;2023-06-19T12:04:01;29.70;99.90
7814;DHT22;3952;48.364;16.022;2023-06-19T12:06:30;29.70;99.90
7814;DHT22;3952;48.364;16.022;2023-06-19T12:08:58;29.60;99.90
7814;DHT22;3952;48.364;16.022;2023-06-19T12:11:25;29.60;99.70
7814;DHT22;3952;48.364;16.022;2023-06-19T12:13:52;29.70;98.00
7814;DHT22;3952;48.364;16.022;2023-06-19T12:16:21;29.60;95.20
7814;DHT22;3952;48.364;16.022;2023-06-19T12:18:48;29.60;98.20
7814;DHT22;3952;48.364;16.022;2023-06-19T12:21:16;29.70;97.10
7814;DHT22;3952;48.364;16.022;2023-06-19T12:23:44;29.60;95.70
7814;DHT22;3952;48.364;16.022;2023-06-19T12:26:11;29.60;97.80
7814;DHT22;3952;48.364;16.022;2023-06-19T12:28:38;29.60;97.70
7814;DHT22;3952;48.364;16.022;2023-06-19T12:31:06;29.60;95.60
7814;DHT22;3952;48.364;16.022;2023-06-19T12:33:33;29.60;95.40
7814;DHT22;3952;48.364;16.022;2023-06-19T12:36:02;29.70;95.30
7814;DHT22;3952;48.364;16.022;2023-06-19T12:38:31;29.70;95.20
7814;DHT22;3952;48.364;16.022;2023-06-19T12:41:00;29.70;94.50
7814;DHT22;3952;48.364;16.022;2023-06-19T12:43:27;29.80;93.50
7814;DHT22;3952;48.364;16.022;2023-06-19T12:45:57;29.70;92.40
7814;DHT22;3952;48.364;16.022;2023-06-19T12:48:25;29.70;94.10
7814;DHT22;3952;48.364;16.022;2023-06-19T12:50:52;29.70;91.40
7814;DHT22;3952;48.364;16.022;2023-06-19T12:53:19;29.70;92.10
7814;DHT22;3952;48.364;16.022;2023-06-19T12:55:48;29.80;92.70
7814;DHT22;3952;48.364;16.022;2023-06-19T12:58:17;29.80;86.50
7814;DHT22;3952;48.364;16.022;2023-06-19T13:00:44;29.70;84.20
7814;DHT22;3952;48.364;16.022;2023-06-19T13:03:11;29.70;90.20
7814;DHT22;3952;48.364;16.022;2023-06-19T13:05:38;29.70;84.20
7814;DHT22;3952;48.364;16.022;2023-06-19T13:08:05;29.80;83.00
7814;DHT22;3952;48.364;16.022;2023-06-19T13:10:33;29.80;82.70
7814;DHT22;3952;48.364;16.022;2023-06-19T13:13:00;29.90;81.60
7814;DHT22;3952;48.364;16.022;2023-06-19T13:15:29;30.00;81.00
7814;DHT22;3952;48.364;16.022;2023-06-19T13:17:56;30.00;83.90
7814;DHT22;3952;48.364;16.022;2023-06-19T13:20:23;30.10;84.10
7814;DHT22;3952;48.364;16.022;2023-06-19T13:22:50;30.20;81.80
7814;DHT22;3952;48.364;16.022;2023-06-19T13:25:18;30.20;82.80
7814;DHT22;3952;48.364;16.022;2023-06-19T13:27:46;30.20;82.70
7814;DHT22;3952;48.364;16.022;2023-06-19T13:30:13;30.30;84.30
7814;DHT22;3952;48.364;16.022;2023-06-19T13:32:43;30.30;84.40
7814;DHT22;3952;48.364;16.022;2023-06-19T13:35:10;30.20;83.60
7814;DHT22;3952;48.364;16.022;2023-06-19T13:37:37;30.20;84.30
7814;DHT22;3952;48.364;16.022;2023-06-19T13:40:06;30.20;83.80
7814;DHT22;3952;48.364;16.022;2023-06-19T13:42:34;30.20;85.00
7814;DHT22;3952;48.364;16.022;2023-06-19T13:45:02;30.30;86.30
7814;DHT22;3952;48.364;16.022;2023-06-19T13:47:29;30.30;85.60
7814;DHT22;3952;48.364;16.022;2023-06-19T13:49:58;30.30;85.70
7814;DHT22;3952;48.364;16.022;2023-06-19T13:52:25;30.30;82.10
7814;DHT22;3952;48.364;16.022;2023-06-19T13:54:53;30.20;84.20
7814;DHT22;3952;48.364;16.022;2023-06-19T13:57:20;30.10;80.10
7814;DHT22;3952;48.364;16.022;2023-06-19T13:59:47;30.10;81.90
7814;DHT22;3952;48.364;16.022;2023-06-19T14:02:15;30.10;82.70
7814;DHT22;3952;48.364;16.022;2023-06-19T14:04:43;30.10;83.90
7814;DHT22;3952;48.364;16.022;2023-06-19T14:07:11;30.20;83.90
7814;DHT22;3952;48.364;16.022;2023-06-19T14:09:39;30.20;84.80
7814;DHT22;3952;48.364;16.022;2023-06-19T14:12:08;30.20;78.80
7814;DHT22;3952;48.364;16.022;2023-06-19T14:14:35;30.20;82.10
7814;DHT22;3952;48.364;16.022;2023-06-19T14:17:02;30.10;84.80
7814;DHT22;3952;48.364;16.022;2023-06-19T14:19:29;30.20;84.70
7814;DHT22;3952;48.364;16.022;2023-06-19T14:21:57;30.20;81.40
7814;DHT22;3952;48.364;16.022;2023-06-19T14:24:25;30.20;83.80
7814;DHT22;3952;48.364;16.022;2023-06-19T14:26:52;30.20;87.10
7814;DHT22;3952;48.364;16.022;2023-06-19T14:29:20;30.20;82.60
7814;DHT22;3952;48.364;16.022;2023-06-19T14:31:47;30.30;82.50
7814;DHT22;3952;48.364;16.022;2023-06-19T14:34:14;30.30;82.60
7814;DHT22;3952;48.364;16.022;2023-06-19T14:36:41;30.20;80.30
7814;DHT22;3952;48.364;16.022;2023-06-19T14:39:08;30.20;76.90
7814;DHT22;3952;48.364;16.022;2023-06-19T14:41:38;30.10;73.00
7814;DHT22;3952;48.364;16.022;2023-06-19T14:44:05;30.00;68.90
7814;DHT22;3952;48.364;16.022;2023-06-19T14:46:33;29.90;72.50
7814;DHT22;3952;48.364;16.022;2023-06-19T14:49:05;29.90;73.50
7814;DHT22;3952;48.364;16.022;2023-06-19T14:51:32;29.80;72.80
7814;DHT22;3952;48.364;16.022;2023-06-19T14:54:00;29.80;76.20
7814;DHT22;3952;48.364;16.022;2023-06-19T14:56:28;29.80;77.90
7814;DHT22;3952;48.364;16.022;2023-06-19T14:58:57;29.80;80.00
7814;DHT22;3952;48.364;16.022;2023-06-19T15:01:24;29.90;81.60
7814;DHT22;3952;48.364;16.022;2023-06-19T15:03:52;29.90;78.70
7814;DHT22;3952;48.364;16.022;2023-06-19T15:06:19;29.90;76.60
7814;DHT22;3952;48.364;16.022;2023-06-19T15:08:46;29.90;77.80
7814;DHT22;3952;48.364;16.022;2023-06-19T15:11:14;29.90;78.40
7814;DHT22;3952;48.364;16.022;2023-06-19T15:13:41;29.90;72.50
7814;DHT22;3952;48.364;16.022;2023-06-19T15:16:09;29.80;74.90
7814;DHT22;3952;48.364;16.022;2023-06-19T15:18:37;29.80;77.90
7814;DHT22;3952;48.364;16.022;2023-06-19T15:21:05;29.80;80.70
7814;DHT22;3952;48.364;16.022;2023-06-19T15:23:33;29.80;79.90
7814;DHT22;3952;48.364;16.022;2023-06-19T15:26:00;29.70;76.40
7814;DHT22;3952;48.364;16.022;2023-06-19T15:28:27;29.50;75.20
7814;DHT22;3952;48.364;16.022;2023-06-19T15:30:54;29.40;75.70
7814;DHT22;3952;48.364;16.022;2023-06-19T15:33:23;29.30;75.10
7814;DHT22;3952;48.364;16.022;2023-06-19T15:35:51;29.30;77.70
7814;DHT22;3952;48.364;16.022;2023-06-19T15:38:18;29.30;76.50
7814;DHT22;3952;48.364;16.022;2023-06-19T15:40:45;29.30;77.10
7814;DHT22;3952;48.364;16.022;2023-06-19T15:43:12;29.30;81.80
7814;DHT22;3952;48.364;16.022;2023-06-19T15:45:40;29.30;77.00
7814;DHT22;3952;48.364;16.022;2023-06-19T15:48:07;29.30;79.60
7814;DHT22;3952;48.364;16.022;2023-06-19T15:50:35;29.30;76.30